createdAt,value
2023-03-31T00:02:13.771Z,5.50
2023-03-31T00:08:15.884Z,10.40
2023-03-31T00:14:19.641Z,8.75
2023-03-31T00:20:22.841Z,7.07
2023-03-31T00:26:26.202Z,9.68
2023-03-31T00:32:28.131Z,8.20
2023-03-31T00:38:30.533Z,8.85
2023-03-31T00:44:34.375Z,5.82
2023-03-31T00:50:46.883Z,12.45
2023-03-31T00:56:53.269Z,7.75
2023-03-31T01:02:58.843Z,12.07
2023-03-31T01:09:06.696Z,10.32
2023-03-31T01:21:32.361Z,9.40
2023-03-31T01:27:54.257Z,12.00
2023-03-31T01:34:28.822Z,8.15
2023-03-31T01:40:39.277Z,11.75
2023-03-31T01:46:51.621Z,5.57
2023-03-31T01:53:12.656Z,9.55
2023-03-31T01:59:27.026Z,8.63
2023-03-31T02:05:56.612Z,9.43
2023-03-31T02:12:00.043Z,6.45
2023-03-31T02:18:11.061Z,7.57
2023-03-31T02:24:15.246Z,9.23
2023-03-31T02:30:17.077Z,13.63
2023-03-31T02:36:19.847Z,8.95
2023-03-31T02:42:22.249Z,8.77
2023-03-31T02:48:30.923Z,9.80
2023-03-31T02:54:41.826Z,9.95
2023-03-31T03:01:05.400Z,12.70
2023-03-31T03:07:21.915Z,8.30
2023-03-31T03:13:47.622Z,16.77
2023-03-31T03:19:59.950Z,7.32
2023-03-31T03:26:01.787Z,9.55
2023-03-31T03:32:03.609Z,4.40
2023-03-31T03:38:05.499Z,7.72
2023-03-31T03:44:07.303Z,8.93
2023-03-31T03:50:10.463Z,11.25
2023-03-31T03:56:12.423Z,9.35
2023-03-31T04:02:14.476Z,10.32
2023-03-31T04:08:17.182Z,10.68
2023-03-31T04:14:19.001Z,6.88
2023-03-31T04:20:21.708Z,7.28
2023-03-31T04:26:30.829Z,4.68
2023-03-31T04:32:33.068Z,6.13
2023-03-31T04:38:35.108Z,7.55
2023-03-31T04:44:36.888Z,3.38
2023-03-31T04:50:39.052Z,7.18
2023-03-31T04:56:40.931Z,7.60
2023-03-31T05:02:42.848Z,8.23
2023-03-31T05:08:45.445Z,4.93
2023-03-31T05:14:47.253Z,5.38
2023-03-31T05:20:49.051Z,8.60
2023-03-31T05:26:52.882Z,6.88
2023-03-31T05:32:54.877Z,6.05
2023-03-31T05:38:56.664Z,4.65
2023-03-31T05:44:58.562Z,4.75
2023-03-31T05:51:01.816Z,3.95
2023-03-31T05:57:04.289Z,8.52
2023-03-31T06:03:08.011Z,5.75
2023-03-31T06:09:12.256Z,3.95
2023-03-31T06:15:14.151Z,7.32
2023-03-31T06:21:18.485Z,8.05
2023-03-31T06:27:20.443Z,8.40
2023-03-31T06:33:22.229Z,7.80
2023-03-31T06:39:25.784Z,7.72
2023-03-31T06:45:29.526Z,6.40
2023-03-31T06:51:32.650Z,5.85
2023-03-31T06:57:34.635Z,7.95
2023-03-31T07:03:36.818Z,6.63
2023-03-31T07:09:38.595Z,7.68
2023-03-31T07:15:40.407Z,9.35
2023-03-31T07:21:42.203Z,8.13
2023-03-31T07:27:44.607Z,10.93
2023-03-31T07:33:46.382Z,12.02
2023-03-31T07:39:48.154Z,12.65
2023-03-31T07:45:50.344Z,10.65
2023-03-31T07:51:52.148Z,9.55
2023-03-31T07:57:53.997Z,9.70
2023-03-31T08:03:57.024Z,11.20
2023-03-31T08:09:58.943Z,7.80
2023-03-31T08:16:00.901Z,7.10
2023-03-31T08:22:03.273Z,8.68
2023-03-31T08:28:06.830Z,8.85
2023-03-31T08:34:08.716Z,11.32
2023-03-31T08:40:20.230Z,7.53
2023-03-31T08:46:28.075Z,6.72
2023-03-31T08:58:45.841Z,4.55
2023-03-31T09:05:00.101Z,4.95
2023-03-31T09:11:32.104Z,5.82
2023-03-31T09:17:46.222Z,5.18
2023-03-31T09:24:02.139Z,3.55
2023-03-31T09:30:26.687Z,3.05
2023-03-31T09:36:28.934Z,5.00
2023-03-31T09:42:31.155Z,3.33
2023-03-31T09:48:36.196Z,3.22
2023-03-31T09:54:43.842Z,5.68
2023-03-31T10:00:59.565Z,3.08
2023-03-31T10:07:04.917Z,4.55
2023-03-31T10:13:11.479Z,3.03
2023-03-31T10:19:23.705Z,3.22
2023-03-31T10:25:28.650Z,3.72
2023-03-31T10:31:37.775Z,2.60
2023-03-31T10:37:40.700Z,3.53
2023-03-31T10:43:47.902Z,2.80
2023-03-31T10:49:55.968Z,2.87
2023-03-31T10:56:38.066Z,1.80
2023-03-31T11:02:39.870Z,4.28
2023-03-31T11:09:14.768Z,2.08
2023-03-31T11:16:00.929Z,2.67
2023-03-31T11:22:26.054Z,2.30
2023-03-31T11:28:48.146Z,2.92
2023-03-31T11:35:04.299Z,1.65
2023-03-31T11:41:18.026Z,3.40
2023-03-31T11:47:25.685Z,2.60
2023-03-31T11:59:34.643Z,2.05
2023-03-31T12:05:47.560Z,3.03
2023-03-31T12:12:14.832Z,3.47
2023-03-31T12:18:24.847Z,3.00
2023-03-31T12:24:27.066Z,5.82
2023-03-31T12:30:34.693Z,1.70
2023-03-31T12:37:21.230Z,4.65
2023-03-31T12:43:28.920Z,4.35
2023-03-31T12:49:59.589Z,3.63
2023-03-31T12:56:02.199Z,4.10
2023-03-31T13:02:10.228Z,2.22
2023-03-31T13:08:50.629Z,4.70
2023-03-31T13:14:59.881Z,3.15
2023-03-31T13:27:35.296Z,5.13
2023-03-31T13:33:47.174Z,6.65
2023-03-31T13:39:55.286Z,6.20
2023-03-31T13:46:35.170Z,8.60
2023-03-31T13:53:01.237Z,6.93
2023-03-31T13:59:20.466Z,4.38
2023-03-31T14:05:39.767Z,4.03
2023-03-31T14:11:42.371Z,9.40
2023-03-31T14:17:45.024Z,8.23
2023-03-31T14:24:21.986Z,7.40
2023-03-31T14:30:33.198Z,4.55
2023-03-31T14:37:13.868Z,4.40
2023-03-31T14:43:22.150Z,4.50
2023-03-31T14:49:34.768Z,5.10
2023-03-31T14:55:54.415Z,6.20
2023-03-31T15:01:59.677Z,4.95
2023-03-31T15:08:07.703Z,3.33
2023-03-31T15:14:10.331Z,4.38
2023-03-31T15:20:24.386Z,6.07
2023-03-31T15:26:40.399Z,4.25
2023-03-31T15:32:43.467Z,3.63
2023-03-31T15:38:45.526Z,3.78
2023-03-31T15:45:16.487Z,6.13
2023-03-31T15:51:29.789Z,2.85
2023-03-31T15:57:36.415Z,4.57
2023-03-31T16:03:38.760Z,4.13
2023-03-31T16:09:59.423Z,3.40
2023-03-31T16:16:01.679Z,5.10
2023-03-31T16:22:04.872Z,4.07
2023-03-31T16:28:07.402Z,1.85
2023-03-31T16:34:11.252Z,4.90
2023-03-31T16:40:13.822Z,1.30
2023-03-31T16:46:15.967Z,1.60
2023-03-31T16:52:18.268Z,1.08
2023-03-31T16:58:20.468Z,2.22
2023-03-31T17:04:23.207Z,2.30
2023-03-31T17:10:25.308Z,2.67
2023-03-31T17:16:36.352Z,2.53
2023-03-31T17:22:48.938Z,0.85
2023-03-31T17:28:51.763Z,1.60
2023-03-31T17:34:53.591Z,4.88
2023-03-31T17:40:55.631Z,1.88
2023-03-31T17:46:57.580Z,2.20
2023-03-31T17:52:59.388Z,3.13
2023-03-31T17:59:01.688Z,7.95
2023-03-31T18:05:08.370Z,4.22
2023-03-31T18:11:10.966Z,2.58
2023-03-31T18:17:14.952Z,3.08
2023-03-31T18:23:16.804Z,5.45
2023-03-31T18:29:18.657Z,6.03
2023-03-31T18:35:22.246Z,4.90
2023-03-31T18:41:25.035Z,4.55
2023-03-31T18:47:26.946Z,4.82
2023-03-31T18:53:30.107Z,5.10
2023-03-31T18:59:31.980Z,7.03
2023-03-31T19:05:34.102Z,5.28
2023-03-31T19:11:37.705Z,7.05
2023-03-31T19:17:39.790Z,5.97
2023-03-31T19:23:41.622Z,6.95
2023-03-31T19:29:43.468Z,4.07
2023-03-31T19:35:46.881Z,3.67
2023-03-31T19:41:48.744Z,3.28
2023-03-31T19:47:50.561Z,3.72
2023-03-31T19:53:53.634Z,5.18
2023-03-31T19:59:55.516Z,5.22
2023-03-31T20:06:10.208Z,3.10
2023-03-31T20:12:12.361Z,4.15
2023-03-31T20:18:14.295Z,7.45
2023-03-31T20:24:18.963Z,4.65
2023-03-31T20:30:21.219Z,7.07
2023-03-31T20:36:26.895Z,7.13
2023-03-31T20:42:28.662Z,8.55
2023-03-31T20:48:38.610Z,7.40
2023-03-31T20:54:40.553Z,10.13
2023-03-31T21:00:42.530Z,4.57
2023-03-31T21:06:47.000Z,5.35
2023-03-31T21:12:49.087Z,5.53
2023-03-31T21:18:59.256Z,7.22
2023-03-31T21:25:01.167Z,11.38
2023-03-31T21:31:06.400Z,6.78
2023-03-31T21:37:08.923Z,4.13
2023-03-31T21:43:12.668Z,8.15
2023-03-31T21:49:15.719Z,7.47
2023-03-31T21:55:18.573Z,12.95
2023-03-31T22:01:21.740Z,8.02
2023-03-31T22:07:24.286Z,13.07
2023-03-31T22:13:26.801Z,11.88
2023-03-31T22:19:28.633Z,8.90
2023-03-31T22:25:30.988Z,7.38
2023-03-31T22:31:33.042Z,5.43
2023-03-31T22:37:35.208Z,7.53
2023-03-31T22:43:37.007Z,6.28
2023-03-31T22:49:38.855Z,7.55
2023-03-31T22:55:54.196Z,8.05
2023-03-31T23:01:56.580Z,8.52
2023-03-31T23:08:01.321Z,5.82
2023-03-31T23:14:04.652Z,8.45
2023-03-31T23:20:09.113Z,6.53
2023-03-31T23:26:12.391Z,6.50
2023-03-31T23:32:14.691Z,5.22
2023-03-31T23:38:16.595Z,5.03
2023-03-31T23:44:18.456Z,5.68
2023-03-31T23:50:20.521Z,5.75
2023-03-31T23:56:22.978Z,5.90
